sensor_id;sensor_type;location;lat;lon;timestamp;temperature;humidity
15257;DHT22;7731;50.720;6.912;2024-01-06T00:02:16;7.20;99.90
15257;DHT22;7731;50.720;6.912;2024-01-06T00:04:49;7.10;99.90
15257;DHT22;7731;50.720;6.912;2024-01-06T00:07:32;7.30;99.90
15257;DHT22;7731;50.720;6.912;2024-01-06T00:10:05;7.20;99.90
15257;DHT22;7731;50.720;6.912;2024-01-06T00:12:35;7.20;99.90
15257;DHT22;7731;50.720;6.912;2024-01-06T00:15:19;7.20;99.90
15257;DHT22;7731;50.720;6.912;2024-01-06T00:17:49;7.20;99.90
15257;DHT22;7731;50.720;6.912;2024-01-06T00:20:30;7.20;99.90
15257;DHT22;7731;50.720;6.912;2024-01-06T00:23:16;7.10;99.90
15257;DHT22;7731;50.720;6.912;2024-01-06T00:25:46;7.10;99.90
15257;DHT22;7731;50.720;6.912;2024-01-06T00:28:19;7.10;99.90
15257;DHT22;7731;50.720;6.912;2024-01-06T00:30:51;7.10;99.90
15257;DHT22;7731;50.720;6.912;2024-01-06T00:33:27;7.10;99.90
15257;DHT22;7731;50.720;6.912;2024-01-06T00:36:10;7.10;99.90
15257;DHT22;7731;50.720;6.912;2024-01-06T00:38:45;7.10;99.90
15257;DHT22;7731;50.720;6.912;2024-01-06T00:41:16;7.10;99.90
15257;DHT22;7731;50.720;6.912;2024-01-06T00:43:49;7.10;99.90
15257;DHT22;7731;50.720;6.912;2024-01-06T00:46:19;7.10;99.90
15257;DHT22;7731;50.720;6.912;2024-01-06T00:48:49;7.00;99.90
15257;DHT22;7731;50.720;6.912;2024-01-06T00:51:19;7.10;99.90
15257;DHT22;7731;50.720;6.912;2024-01-06T00:53:52;7.00;99.90
15257;DHT22;7731;50.720;6.912;2024-01-06T00:56:21;7.10;99.90
15257;DHT22;7731;50.720;6.912;2024-01-06T00:58:54;7.10;99.90
15257;DHT22;7731;50.720;6.912;2024-01-06T01:01:24;7.00;99.90
15257;DHT22;7731;50.720;6.912;2024-01-06T01:03:54;7.00;99.90
15257;DHT22;7731;50.720;6.912;2024-01-06T01:06:24;7.00;99.90
15257;DHT22;7731;50.720;6.912;2024-01-06T01:09:04;7.00;99.90
15257;DHT22;7731;50.720;6.912;2024-01-06T01:11:38;7.00;99.90
15257;DHT22;7731;50.720;6.912;2024-01-06T01:14:08;7.00;99.90
15257;DHT22;7731;50.720;6.912;2024-01-06T01:16:38;7.00;99.90
15257;DHT22;7731;50.720;6.912;2024-01-06T01:19:08;7.00;99.90
15257;DHT22;7731;50.720;6.912;2024-01-06T01:21:38;7.00;99.90
15257;DHT22;7731;50.720;6.912;2024-01-06T01:24:11;7.00;99.90
15257;DHT22;7731;50.720;6.912;2024-01-06T01:26:55;7.00;99.90
15257;DHT22;7731;50.720;6.912;2024-01-06T01:29:28;6.90;99.90
15257;DHT22;7731;50.720;6.912;2024-01-06T01:32:08;7.00;99.90
15257;DHT22;7731;50.720;6.912;2024-01-06T01:34:38;7.00;99.90
15257;DHT22;7731;50.720;6.912;2024-01-06T01:37:08;7.00;99.90
15257;DHT22;7731;50.720;6.912;2024-01-06T01:39:52;7.00;99.90
15257;DHT22;7731;50.720;6.912;2024-01-06T01:42:22;7.00;99.90
15257;DHT22;7731;50.720;6.912;2024-01-06T01:44:52;7.00;99.90
15257;DHT22;7731;50.720;6.912;2024-01-06T01:47:22;7.10;99.90
15257;DHT22;7731;50.720;6.912;2024-01-06T01:49:55;7.00;99.90
15257;DHT22;7731;50.720;6.912;2024-01-06T01:52:25;7.00;99.90
15257;DHT22;7731;50.720;6.912;2024-01-06T01:55:08;7.00;99.90
15257;DHT22;7731;50.720;6.912;2024-01-06T01:57:41;6.90;99.90
15257;DHT22;7731;50.720;6.912;2024-01-06T02:00:15;6.90;99.90
15257;DHT22;7731;50.720;6.912;2024-01-06T02:02:45;6.80;99.90
15257;DHT22;7731;50.720;6.912;2024-01-06T02:05:15;6.90;99.90
15257;DHT22;7731;50.720;6.912;2024-01-06T02:07:48;6.90;99.90
15257;DHT22;7731;50.720;6.912;2024-01-06T02:10:21;6.80;99.90
15257;DHT22;7731;50.720;6.912;2024-01-06T02:12:54;6.80;99.90
15257;DHT22;7731;50.720;6.912;2024-01-06T02:15:25;6.90;99.90
15257;DHT22;7731;50.720;6.912;2024-01-06T02:17:55;6.80;99.90
15257;DHT22;7731;50.720;6.912;2024-01-06T02:20:25;6.80;99.90
15257;DHT22;7731;50.720;6.912;2024-01-06T02:23:01;6.80;99.90
15257;DHT22;7731;50.720;6.912;2024-01-06T02:25:32;6.80;99.90
15257;DHT22;7731;50.720;6.912;2024-01-06T02:28:02;6.80;99.90
15257;DHT22;7731;50.720;6.912;2024-01-06T02:30:32;6.80;99.90
15257;DHT22;7731;50.720;6.912;2024-01-06T02:33:03;6.80;99.90
15257;DHT22;7731;50.720;6.912;2024-01-06T02:35:33;6.80;99.90
15257;DHT22;7731;50.720;6.912;2024-01-06T02:38:06;6.80;99.90
15257;DHT22;7731;50.720;6.912;2024-01-06T02:40:37;6.80;99.90
15257;DHT22;7731;50.720;6.912;2024-01-06T02:43:07;6.80;99.90
15257;DHT22;7731;50.720;6.912;2024-01-06T02:45:36;6.80;99.90
15257;DHT22;7731;50.720;6.912;2024-01-06T02:48:07;6.80;99.90
15257;DHT22;7731;50.720;6.912;2024-01-06T02:50:37;6.80;99.90
15257;DHT22;7731;50.720;6.912;2024-01-06T02:53:14;6.80;99.90
15257;DHT22;7731;50.720;6.912;2024-01-06T02:55:44;6.80;99.90
15257;DHT22;7731;50.720;6.912;2024-01-06T02:58:14;6.80;99.90
15257;DHT22;7731;50.720;6.912;2024-01-06T03:00:44;6.80;99.90
15257;DHT22;7731;50.720;6.912;2024-01-06T03:03:14;6.80;99.90
15257;DHT22;7731;50.720;6.912;2024-01-06T03:05:45;6.80;99.90
15257;DHT22;7731;50.720;6.912;2024-01-06T03:08:19;6.80;99.90
15257;DHT22;7731;50.720;6.912;2024-01-06T03:10:49;6.90;99.90
15257;DHT22;7731;50.720;6.912;2024-01-06T03:13:19;6.80;99.90
15257;DHT22;7731;50.720;6.912;2024-01-06T03:15:52;6.80;99.90
15257;DHT22;7731;50.720;6.912;2024-01-06T03:18:23;6.80;99.90
15257;DHT22;7731;50.720;6.912;2024-01-06T03:20:53;6.80;99.90
15257;DHT22;7731;50.720;6.912;2024-01-06T03:23:25;6.80;99.90
15257;DHT22;7731;50.720;6.912;2024-01-06T03:25:58;6.80;99.90
15257;DHT22;7731;50.720;6.912;2024-01-06T03:28:45;6.80;99.90
15257;DHT22;7731;50.720;6.912;2024-01-06T03:31:15;6.80;99.90
15257;DHT22;7731;50.720;6.912;2024-01-06T03:33:45;6.80;99.90
15257;DHT22;7731;50.720;6.912;2024-01-06T03:36:15;6.70;99.90
15257;DHT22;7731;50.720;6.912;2024-01-06T03:38:48;6.70;99.90
15257;DHT22;7731;50.720;6.912;2024-01-06T03:41:21;6.80;99.90
15257;DHT22;7731;50.720;6.912;2024-01-06T03:43:51;6.80;99.90
15257;DHT22;7731;50.720;6.912;2024-01-06T03:46:21;6.80;99.90
15257;DHT22;7731;50.720;6.912;2024-01-06T03:48:54;6.80;99.90
15257;DHT22;7731;50.720;6.912;2024-01-06T03:51:27;6.70;99.90
15257;DHT22;7731;50.720;6.912;2024-01-06T03:54:08;6.80;99.90
15257;DHT22;7731;50.720;6.912;2024-01-06T03:56:38;6.80;99.90
15257;DHT22;7731;50.720;6.912;2024-01-06T03:59:08;6.80;99.90
15257;DHT22;7731;50.720;6.912;2024-01-06T04:01:38;6.80;99.90
15257;DHT22;7731;50.720;6.912;2024-01-06T04:04:08;6.80;99.90
15257;DHT22;7731;50.720;6.912;2024-01-06T04:06:38;6.80;99.90
15257;DHT22;7731;50.720;6.912;2024-01-06T04:09:23;6.80;99.90
15257;DHT22;7731;50.720;6.912;2024-01-06T04:11:56;6.80;99.90
15257;DHT22;7731;50.720;6.912;2024-01-06T04:14:31;6.80;99.90
15257;DHT22;7731;50.720;6.912;2024-01-06T04:17:01;6.80;99.90
15257;DHT22;7731;50.720;6.912;2024-01-06T04:19:31;6.80;99.90
15257;DHT22;7731;50.720;6.912;2024-01-06T04:22:01;6.80;99.90
15257;DHT22;7731;50.720;6.912;2024-01-06T04:24:37;6.80;99.90
15257;DHT22;7731;50.720;6.912;2024-01-06T04:27:16;6.80;99.90
15257;DHT22;7731;50.720;6.912;2024-01-06T04:29:46;6.80;99.90
15257;DHT22;7731;50.720;6.912;2024-01-06T04:32:29;6.80;99.90
15257;DHT22;7731;50.720;6.912;2024-01-06T04:34:59;6.80;99.90
15257;DHT22;7731;50.720;6.912;2024-01-06T04:37:30;6.80;99.90
15257;DHT22;7731;50.720;6.912;2024-01-06T04:40:03;6.80;99.90
15257;DHT22;7731;50.720;6.912;2024-01-06T04:42:34;6.80;99.90
15257;DHT22;7731;50.720;6.912;2024-01-06T04:45:08;6.80;99.90
15257;DHT22;7731;50.720;6.912;2024-01-06T04:47:41;6.80;99.90
15257;DHT22;7731;50.720;6.912;2024-01-06T04:50:20;6.80;99.90
15257;DHT22;7731;50.720;6.912;2024-01-06T04:52:50;6.80;99.90
15257;DHT22;7731;50.720;6.912;2024-01-06T04:55:23;6.80;99.90
15257;DHT22;7731;50.720;6.912;2024-01-06T04:57:53;6.80;99.90
15257;DHT22;7731;50.720;6.912;2024-01-06T05:00:23;6.80;99.90
15257;DHT22;7731;50.720;6.912;2024-01-06T05:02:53;6.80;99.90
15257;DHT22;7731;50.720;6.912;2024-01-06T05:05:23;6.70;99.90
15257;DHT22;7731;50.720;6.912;2024-01-06T05:07:54;6.70;99.90
15257;DHT22;7731;50.720;6.912;2024-01-06T05:10:27;6.70;99.90
15257;DHT22;7731;50.720;6.912;2024-01-06T05:12:57;6.70;99.90
15257;DHT22;7731;50.720;6.912;2024-01-06T05:15:27;6.80;99.90
15257;DHT22;7731;50.720;6.912;2024-01-06T05:17:58;6.80;99.90
15257;DHT22;7731;50.720;6.912;2024-01-06T05:20:28;6.80;99.90
15257;DHT22;7731;50.720;6.912;2024-01-06T05:22:58;6.80;99.90
15257;DHT22;7731;50.720;6.912;2024-01-06T05:25:33;6.80;99.90
15257;DHT22;7731;50.720;6.912;2024-01-06T05:28:03;6.90;99.90
15257;DHT22;7731;50.720;6.912;2024-01-06T05:30:35;6.90;99.90
15257;DHT22;7731;50.720;6.912;2024-01-06T05:33:06;6.90;99.90
15257;DHT22;7731;50.720;6.912;2024-01-06T05:35:45;6.80;99.90
15257;DHT22;7731;50.720;6.912;2024-01-06T05:38:18;6.80;99.90
15257;DHT22;7731;50.720;6.912;2024-01-06T05:40:50;6.80;99.90
15257;DHT22;7731;50.720;6.912;2024-01-06T05:43:20;6.70;99.90
15257;DHT22;7731;50.720;6.912;2024-01-06T05:45:50;6.70;99.90
15257;DHT22;7731;50.720;6.912;2024-01-06T05:48:23;6.70;99.90
15257;DHT22;7731;50.720;6.912;2024-01-06T05:51:01;6.70;99.90
15257;DHT22;7731;50.720;6.912;2024-01-06T05:53:31;6.70;99.90
15257;DHT22;7731;50.720;6.912;2024-01-06T05:56:04;6.70;99.90
15257;DHT22;7731;50.720;6.912;2024-01-06T05:58:36;6.80;99.90
15257;DHT22;7731;50.720;6.912;2024-01-06T06:01:09;6.90;99.90
15257;DHT22;7731;50.720;6.912;2024-01-06T06:03:39;6.90;99.90
15257;DHT22;7731;50.720;6.912;2024-01-06T06:06:10;7.00;99.90
15257;DHT22;7731;50.720;6.912;2024-01-06T06:08:41;7.00;99.90
15257;DHT22;7731;50.720;6.912;2024-01-06T06:11:21;7.10;99.90
15257;DHT22;7731;50.720;6.912;2024-01-06T06:13:51;7.00;99.90
15257;DHT22;7731;50.720;6.912;2024-01-06T06:16:24;7.00;99.90
15257;DHT22;7731;50.720;6.912;2024-01-06T06:18:57;7.00;99.90
15257;DHT22;7731;50.720;6.912;2024-01-06T06:21:30;6.90;99.90
15257;DHT22;7731;50.720;6.912;2024-01-06T06:24:03;6.90;99.90
15257;DHT22;7731;50.720;6.912;2024-01-06T06:26:38;6.90;99.90
15257;DHT22;7731;50.720;6.912;2024-01-06T06:29:08;6.90;99.90
15257;DHT22;7731;50.720;6.912;2024-01-06T06:31:38;6.90;99.90
15257;DHT22;7731;50.720;6.912;2024-01-06T06:34:10;6.80;99.90
15257;DHT22;7731;50.720;6.912;2024-01-06T06:36:43;7.00;99.90
15257;DHT22;7731;50.720;6.912;2024-01-06T06:39:16;7.10;99.90
15257;DHT22;7731;50.720;6.912;2024-01-06T06:41:52;7.30;99.90
15257;DHT22;7731;50.720;6.912;2024-01-06T06:44:22;7.10;99.90
15257;DHT22;7731;50.720;6.912;2024-01-06T06:46:55;7.10;99.90
15257;DHT22;7731;50.720;6.912;2024-01-06T06:49:28;7.10;99.90
15257;DHT22;7731;50.720;6.912;2024-01-06T06:51:58;7.10;99.90
15257;DHT22;7731;50.720;6.912;2024-01-06T06:54:29;6.80;99.90
15257;DHT22;7731;50.720;6.912;2024-01-06T06:57:05;6.80;99.90
15257;DHT22;7731;50.720;6.912;2024-01-06T06:59:35;7.00;99.90
15257;DHT22;7731;50.720;6.912;2024-01-06T07:02:05;7.00;99.90
15257;DHT22;7731;50.720;6.912;2024-01-06T07:04:36;7.00;99.90
15257;DHT22;7731;50.720;6.912;2024-01-06T07:07:12;7.00;99.90
15257;DHT22;7731;50.720;6.912;2024-01-06T07:09:42;6.70;99.90
15257;DHT22;7731;50.720;6.912;2024-01-06T07:12:15;6.70;99.90
15257;DHT22;7731;50.720;6.912;2024-01-06T07:14:45;6.60;99.90
15257;DHT22;7731;50.720;6.912;2024-01-06T07:17:18;6.40;99.90
15257;DHT22;7731;50.720;6.912;2024-01-06T07:19:50;6.30;99.90
15257;DHT22;7731;50.720;6.912;2024-01-06T07:22:22;6.20;99.90
15257;DHT22;7731;50.720;6.912;2024-01-06T07:24:52;6.10;99.90
15257;DHT22;7731;50.720;6.912;2024-01-06T07:27:25;6.10;99.90
15257;DHT22;7731;50.720;6.912;2024-01-06T07:29:55;6.00;99.90
15257;DHT22;7731;50.720;6.912;2024-01-06T07:32:28;5.80;99.90
15257;DHT22;7731;50.720;6.912;2024-01-06T07:34:59;5.90;99.90
15257;DHT22;7731;50.720;6.912;2024-01-06T07:37:34;5.80;99.90
15257;DHT22;7731;50.720;6.912;2024-01-06T07:40:07;5.80;99.90
15257;DHT22;7731;50.720;6.912;2024-01-06T07:42:42;5.70;99.90
15257;DHT22;7731;50.720;6.912;2024-01-06T07:45:12;5.80;99.90
15257;DHT22;7731;50.720;6.912;2024-01-06T07:47:45;5.70;99.90
15257;DHT22;7731;50.720;6.912;2024-01-06T07:50:15;5.70;99.90
15257;DHT22;7731;50.720;6.912;2024-01-06T07:52:45;5.70;99.90
15257;DHT22;7731;50.720;6.912;2024-01-06T07:55:17;5.80;99.90
15257;DHT22;7731;50.720;6.912;2024-01-06T07:57:50;5.70;99.90
15257;DHT22;7731;50.720;6.912;2024-01-06T08:00:23;5.90;99.90
15257;DHT22;7731;50.720;6.912;2024-01-06T08:02:53;5.90;99.90
15257;DHT22;7731;50.720;6.912;2024-01-06T08:05:23;6.00;99.90
15257;DHT22;7731;50.720;6.912;2024-01-06T08:07:56;5.90;99.90
15257;DHT22;7731;50.720;6.912;2024-01-06T08:10:26;5.90;99.90
15257;DHT22;7731;50.720;6.912;2024-01-06T08:13:03;5.80;99.90
15257;DHT22;7731;50.720;6.912;2024-01-06T08:15:34;5.80;99.90
15257;DHT22;7731;50.720;6.912;2024-01-06T08:18:04;5.90;99.90
15257;DHT22;7731;50.720;6.912;2024-01-06T08:20:38;5.90;99.90
15257;DHT22;7731;50.720;6.912;2024-01-06T08:23:08;5.90;99.90
15257;DHT22;7731;50.720;6.912;2024-01-06T08:25:38;6.00;99.90
15257;DHT22;7731;50.720;6.912;2024-01-06T08:28:13;5.90;99.90
15257;DHT22;7731;50.720;6.912;2024-01-06T08:31:03;6.10;99.90
15257;DHT22;7731;50.720;6.912;2024-01-06T08:33:35;6.20;99.90
15257;DHT22;7731;50.720;6.912;2024-01-06T08:36:06;6.00;99.90
15257;DHT22;7731;50.720;6.912;2024-01-06T08:38:36;5.90;99.90
15257;DHT22;7731;50.720;6.912;2024-01-06T08:41:09;5.90;99.90
15257;DHT22;7731;50.720;6.912;2024-01-06T08:43:42;5.90;99.90
15257;DHT22;7731;50.720;6.912;2024-01-06T08:46:18;5.90;99.90
15257;DHT22;7731;50.720;6.912;2024-01-06T08:48:48;5.80;99.90
15257;DHT22;7731;50.720;6.912;2024-01-06T08:51:18;6.10;99.90
15257;DHT22;7731;50.720;6.912;2024-01-06T08:53:49;6.10;99.90
15257;DHT22;7731;50.720;6.912;2024-01-06T08:56:22;6.00;99.90
15257;DHT22;7731;50.720;6.912;2024-01-06T08:58:54;5.80;99.90
15257;DHT22;7731;50.720;6.912;2024-01-06T09:01:24;5.80;99.90
15257;DHT22;7731;50.720;6.912;2024-01-06T09:03:55;5.60;99.90
15257;DHT22;7731;50.720;6.912;2024-01-06T09:06:25;5.70;99.90
15257;DHT22;7731;50.720;6.912;2024-01-06T09:08:55;5.60;99.90
15257;DHT22;7731;50.720;6.912;2024-01-06T09:11:25;5.70;99.90
15257;DHT22;7731;50.720;6.912;2024-01-06T09:13:57;5.80;99.90
15257;DHT22;7731;50.720;6.912;2024-01-06T09:16:27;5.80;99.90
15257;DHT22;7731;50.720;6.912;2024-01-06T09:19:00;5.60;99.90
15257;DHT22;7731;50.720;6.912;2024-01-06T09:21:31;5.70;99.90
15257;DHT22;7731;50.720;6.912;2024-01-06T09:24:01;5.80;99.90
15257;DHT22;7731;50.720;6.912;2024-01-06T09:26:37;5.70;99.90
15257;DHT22;7731;50.720;6.912;2024-01-06T09:29:09;5.80;99.90
15257;DHT22;7731;50.720;6.912;2024-01-06T09:31:42;5.80;99.90
15257;DHT22;7731;50.720;6.912;2024-01-06T09:34:15;5.80;99.90
15257;DHT22;7731;50.720;6.912;2024-01-06T09:39:10;6.20;99.90
15257;DHT22;7731;50.720;6.912;2024-01-06T09:41:41;6.20;99.90
15257;DHT22;7731;50.720;6.912;2024-01-06T09:44:14;6.30;99.90
15257;DHT22;7731;50.720;6.912;2024-01-06T09:46:45;6.10;99.90
15257;DHT22;7731;50.720;6.912;2024-01-06T09:49:18;6.10;99.90
15257;DHT22;7731;50.720;6.912;2024-01-06T09:51:53;5.90;99.90
15257;DHT22;7731;50.720;6.912;2024-01-06T09:54:30;5.80;99.90
15257;DHT22;7731;50.720;6.912;2024-01-06T09:57:06;5.90;99.90
15257;DHT22;7731;50.720;6.912;2024-01-06T09:59:39;5.80;99.90
15257;DHT22;7731;50.720;6.912;2024-01-06T10:02:14;5.80;99.90
15257;DHT22;7731;50.720;6.912;2024-01-06T10:04:45;5.80;99.90
15257;DHT22;7731;50.720;6.912;2024-01-06T10:07:16;5.80;99.90
15257;DHT22;7731;50.720;6.912;2024-01-06T10:09:49;5.90;99.90
15257;DHT22;7731;50.720;6.912;2024-01-06T10:12:23;5.80;99.90
15257;DHT22;7731;50.720;6.912;2024-01-06T10:14:58;5.80;99.90
15257;DHT22;7731;50.720;6.912;2024-01-06T10:17:32;6.10;99.90
15257;DHT22;7731;50.720;6.912;2024-01-06T10:20:11;5.90;99.90
15257;DHT22;7731;50.720;6.912;2024-01-06T10:22:42;5.90;99.90
15257;DHT22;7731;50.720;6.912;2024-01-06T10:25:26;5.80;99.90
15257;DHT22;7731;50.720;6.912;2024-01-06T10:28:10;5.70;99.90
15257;DHT22;7731;50.720;6.912;2024-01-06T10:30:41;5.60;99.90
15257;DHT22;7731;50.720;6.912;2024-01-06T10:33:14;5.40;99.90
15257;DHT22;7731;50.720;6.912;2024-01-06T10:35:45;5.50;99.90
15257;DHT22;7731;50.720;6.912;2024-01-06T10:38:18;5.60;99.90
15257;DHT22;7731;50.720;6.912;2024-01-06T10:40:59;5.50;99.90
15257;DHT22;7731;50.720;6.912;2024-01-06T10:43:34;5.60;99.90
15257;DHT22;7731;50.720;6.912;2024-01-06T10:46:08;5.80;99.90
15257;DHT22;7731;50.720;6.912;2024-01-06T10:48:41;5.70;99.90
15257;DHT22;7731;50.720;6.912;2024-01-06T10:51:13;5.80;99.90
15257;DHT22;7731;50.720;6.912;2024-01-06T10:53:48;5.90;99.90
15257;DHT22;7731;50.720;6.912;2024-01-06T10:56:23;5.90;99.90
15257;DHT22;7731;50.720;6.912;2024-01-06T10:59:00;5.80;99.90
15257;DHT22;7731;50.720;6.912;2024-01-06T11:01:37;5.90;99.90
15257;DHT22;7731;50.720;6.912;2024-01-06T11:04:09;6.00;99.90
15257;DHT22;7731;50.720;6.912;2024-01-06T11:06:41;6.00;99.90
15257;DHT22;7731;50.720;6.912;2024-01-06T11:09:22;5.70;99.90
15257;DHT22;7731;50.720;6.912;2024-01-06T11:12:14;5.70;99.90
15257;DHT22;7731;50.720;6.912;2024-01-06T11:14:45;5.70;99.90
15257;DHT22;7731;50.720;6.912;2024-01-06T11:20:26;5.60;99.90
15257;DHT22;7731;50.720;6.912;2024-01-06T11:23:18;5.60;99.90
15257;DHT22;7731;50.720;6.912;2024-01-06T11:25:53;5.50;99.90
15257;DHT22;7731;50.720;6.912;2024-01-06T11:28:26;5.40;99.90
15257;DHT22;7731;50.720;6.912;2024-01-06T11:31:05;5.50;99.90
15257;DHT22;7731;50.720;6.912;2024-01-06T11:33:53;5.30;99.90
15257;DHT22;7731;50.720;6.912;2024-01-06T11:36:25;5.30;99.90
15257;DHT22;7731;50.720;6.912;2024-01-06T11:38:55;5.40;99.90
15257;DHT22;7731;50.720;6.912;2024-01-06T11:41:45;5.60;99.90
15257;DHT22;7731;50.720;6.912;2024-01-06T11:44:21;5.50;99.90
15257;DHT22;7731;50.720;6.912;2024-01-06T11:46:52;5.50;99.90
15257;DHT22;7731;50.720;6.912;2024-01-06T11:49:36;5.40;99.90
15257;DHT22;7731;50.720;6.912;2024-01-06T11:52:06;5.50;99.90
15257;DHT22;7731;50.720;6.912;2024-01-06T11:54:37;5.50;99.90
15257;DHT22;7731;50.720;6.912;2024-01-06T11:57:09;5.50;99.90
15257;DHT22;7731;50.720;6.912;2024-01-06T11:59:47;5.60;99.90
15257;DHT22;7731;50.720;6.912;2024-01-06T12:02:18;5.60;99.90
15257;DHT22;7731;50.720;6.912;2024-01-06T12:04:49;5.70;99.90
15257;DHT22;7731;50.720;6.912;2024-01-06T12:07:21;5.70;99.90
15257;DHT22;7731;50.720;6.912;2024-01-06T12:10:02;5.70;99.90
15257;DHT22;7731;50.720;6.912;2024-01-06T12:12:55;5.70;99.90
15257;DHT22;7731;50.720;6.912;2024-01-06T12:15:34;5.60;99.90
15257;DHT22;7731;50.720;6.912;2024-01-06T12:18:07;5.60;99.90
15257;DHT22;7731;50.720;6.912;2024-01-06T12:20:38;5.70;99.90
15257;DHT22;7731;50.720;6.912;2024-01-06T12:23:09;5.70;99.90
15257;DHT22;7731;50.720;6.912;2024-01-06T12:25:39;5.70;99.90
15257;DHT22;7731;50.720;6.912;2024-01-06T12:28:11;5.70;99.90
15257;DHT22;7731;50.720;6.912;2024-01-06T12:30:50;5.70;99.90
15257;DHT22;7731;50.720;6.912;2024-01-06T12:33:24;5.70;99.90
15257;DHT22;7731;50.720;6.912;2024-01-06T12:35:54;5.70;99.90
15257;DHT22;7731;50.720;6.912;2024-01-06T12:38:46;5.60;99.90
15257;DHT22;7731;50.720;6.912;2024-01-06T12:41:17;5.50;99.90
15257;DHT22;7731;50.720;6.912;2024-01-06T12:43:47;5.40;99.90
15257;DHT22;7731;50.720;6.912;2024-01-06T12:46:20;5.50;99.90
15257;DHT22;7731;50.720;6.912;2024-01-06T12:48:51;5.50;99.90
15257;DHT22;7731;50.720;6.912;2024-01-06T12:51:21;5.60;99.90
15257;DHT22;7731;50.720;6.912;2024-01-06T12:53:54;5.60;99.90
15257;DHT22;7731;50.720;6.912;2024-01-06T12:56:25;5.60;99.90
15257;DHT22;7731;50.720;6.912;2024-01-06T12:59:00;5.60;99.90
15257;DHT22;7731;50.720;6.912;2024-01-06T13:01:36;5.60;99.90
15257;DHT22;7731;50.720;6.912;2024-01-06T13:04:06;5.70;99.90
15257;DHT22;7731;50.720;6.912;2024-01-06T13:06:37;5.70;99.90
15257;DHT22;7731;50.720;6.912;2024-01-06T13:09:13;5.60;99.90
15257;DHT22;7731;50.720;6.912;2024-01-06T13:11:46;5.50;99.90
15257;DHT22;7731;50.720;6.912;2024-01-06T13:14:20;5.60;99.90
15257;DHT22;7731;50.720;6.912;2024-01-06T13:16:53;5.60;99.90
15257;DHT22;7731;50.720;6.912;2024-01-06T13:19:23;5.60;99.90
15257;DHT22;7731;50.720;6.912;2024-01-06T13:21:55;5.50;99.90
15257;DHT22;7731;50.720;6.912;2024-01-06T13:24:31;5.50;99.90
15257;DHT22;7731;50.720;6.912;2024-01-06T13:27:02;5.50;99.90
15257;DHT22;7731;50.720;6.912;2024-01-06T13:29:36;5.40;99.90
15257;DHT22;7731;50.720;6.912;2024-01-06T13:32:15;5.40;99.90
15257;DHT22;7731;50.720;6.912;2024-01-06T13:34:49;5.30;99.90
15257;DHT22;7731;50.720;6.912;2024-01-06T13:37:23;5.40;99.90
15257;DHT22;7731;50.720;6.912;2024-01-06T13:40:00;5.20;99.90
15257;DHT22;7731;50.720;6.912;2024-01-06T13:42:31;5.10;99.90
15257;DHT22;7731;50.720;6.912;2024-01-06T13:45:01;5.10;99.90
15257;DHT22;7731;50.720;6.912;2024-01-06T13:47:43;5.10;99.90
15257;DHT22;7731;50.720;6.912;2024-01-06T13:50:18;5.10;99.90
15257;DHT22;7731;50.720;6.912;2024-01-06T13:52:49;5.00;99.90
15257;DHT22;7731;50.720;6.912;2024-01-06T13:55:19;4.80;99.90
15257;DHT22;7731;50.720;6.912;2024-01-06T13:57:50;4.80;99.90
15257;DHT22;7731;50.720;6.912;2024-01-06T14:00:23;4.90;99.90
15257;DHT22;7731;50.720;6.912;2024-01-06T14:02:57;5.00;99.90
15257;DHT22;7731;50.720;6.912;2024-01-06T14:05:27;5.00;99.90
15257;DHT22;7731;50.720;6.912;2024-01-06T14:07:58;5.10;99.90
15257;DHT22;7731;50.720;6.912;2024-01-06T14:10:29;5.10;99.90
15257;DHT22;7731;50.720;6.912;2024-01-06T14:12:59;5.10;99.90
15257;DHT22;7731;50.720;6.912;2024-01-06T14:15:29;5.10;99.90
15257;DHT22;7731;50.720;6.912;2024-01-06T14:18:04;5.00;99.90
15257;DHT22;7731;50.720;6.912;2024-01-06T14:20:38;5.00;99.90
15257;DHT22;7731;50.720;6.912;2024-01-06T14:23:17;5.00;99.90
15257;DHT22;7731;50.720;6.912;2024-01-06T14:25:51;4.80;99.90
15257;DHT22;7731;50.720;6.912;2024-01-06T14:28:22;4.80;99.90
15257;DHT22;7731;50.720;6.912;2024-01-06T14:30:52;4.80;99.90
15257;DHT22;7731;50.720;6.912;2024-01-06T14:33:27;4.80;99.90
15257;DHT22;7731;50.720;6.912;2024-01-06T14:35:58;4.80;99.90
15257;DHT22;7731;50.720;6.912;2024-01-06T14:38:29;4.90;99.90
15257;DHT22;7731;50.720;6.912;2024-01-06T14:40:59;4.80;99.90
15257;DHT22;7731;50.720;6.912;2024-01-06T14:43:29;4.90;99.90
15257;DHT22;7731;50.720;6.912;2024-01-06T14:46:00;4.80;99.90
15257;DHT22;7731;50.720;6.912;2024-01-06T14:48:38;4.70;99.90
15257;DHT22;7731;50.720;6.912;2024-01-06T14:51:08;4.70;99.90
15257;DHT22;7731;50.720;6.912;2024-01-06T14:53:48;4.80;99.90
15257;DHT22;7731;50.720;6.912;2024-01-06T14:56:26;4.80;99.90
15257;DHT22;7731;50.720;6.912;2024-01-06T14:58:57;4.70;99.90
15257;DHT22;7731;50.720;6.912;2024-01-06T15:01:27;4.80;99.90
15257;DHT22;7731;50.720;6.912;2024-01-06T15:04:10;4.80;99.90
15257;DHT22;7731;50.720;6.912;2024-01-06T15:06:40;4.70;99.90
15257;DHT22;7731;50.720;6.912;2024-01-06T15:09:11;4.80;99.90
15257;DHT22;7731;50.720;6.912;2024-01-06T15:11:41;4.80;99.90
15257;DHT22;7731;50.720;6.912;2024-01-06T15:14:12;4.90;99.90
15257;DHT22;7731;50.720;6.912;2024-01-06T15:16:51;5.20;99.90
15257;DHT22;7731;50.720;6.912;2024-01-06T15:19:27;5.20;99.90
15257;DHT22;7731;50.720;6.912;2024-01-06T15:22:01;5.10;99.90
15257;DHT22;7731;50.720;6.912;2024-01-06T15:24:32;5.10;99.90
15257;DHT22;7731;50.720;6.912;2024-01-06T15:27:03;5.00;99.90
15257;DHT22;7731;50.720;6.912;2024-01-06T15:29:33;5.00;99.90
15257;DHT22;7731;50.720;6.912;2024-01-06T15:32:04;5.10;99.90
15257;DHT22;7731;50.720;6.912;2024-01-06T15:34:38;5.10;99.90
15257;DHT22;7731;50.720;6.912;2024-01-06T15:37:08;5.10;99.90
15257;DHT22;7731;50.720;6.912;2024-01-06T15:39:39;5.10;99.90
15257;DHT22;7731;50.720;6.912;2024-01-06T15:42:09;5.10;99.90
15257;DHT22;7731;50.720;6.912;2024-01-06T15:44:39;5.00;99.90
15257;DHT22;7731;50.720;6.912;2024-01-06T15:47:10;5.00;99.90
15257;DHT22;7731;50.720;6.912;2024-01-06T15:49:48;5.00;99.90
15257;DHT22;7731;50.720;6.912;2024-01-06T15:52:33;4.90;99.90
15257;DHT22;7731;50.720;6.912;2024-01-06T15:55:06;4.90;99.90
15257;DHT22;7731;50.720;6.912;2024-01-06T15:57:38;4.70;99.90
15257;DHT22;7731;50.720;6.912;2024-01-06T16:00:11;4.80;99.90
15257;DHT22;7731;50.720;6.912;2024-01-06T16:02:48;4.70;99.90
15257;DHT22;7731;50.720;6.912;2024-01-06T16:05:24;4.60;99.90
15257;DHT22;7731;50.720;6.912;2024-01-06T16:07:55;4.80;99.90
15257;DHT22;7731;50.720;6.912;2024-01-06T16:10:28;4.70;99.90
15257;DHT22;7731;50.720;6.912;2024-01-06T16:12:58;4.80;99.90
15257;DHT22;7731;50.720;6.912;2024-01-06T16:15:29;4.70;99.90
15257;DHT22;7731;50.720;6.912;2024-01-06T16:18:03;4.60;99.90
15257;DHT22;7731;50.720;6.912;2024-01-06T16:20:38;4.70;99.90
15257;DHT22;7731;50.720;6.912;2024-01-06T16:23:13;4.70;99.90
15257;DHT22;7731;50.720;6.912;2024-01-06T16:25:44;4.60;99.90
15257;DHT22;7731;50.720;6.912;2024-01-06T16:28:14;4.70;99.90
15257;DHT22;7731;50.720;6.912;2024-01-06T16:30:45;4.70;99.90
15257;DHT22;7731;50.720;6.912;2024-01-06T16:33:15;4.70;99.90
15257;DHT22;7731;50.720;6.912;2024-01-06T16:35:53;4.70;99.90
15257;DHT22;7731;50.720;6.912;2024-01-06T16:38:27;4.60;99.90
15257;DHT22;7731;50.720;6.912;2024-01-06T16:41:01;4.50;99.90
15257;DHT22;7731;50.720;6.912;2024-01-06T16:43:32;4.40;99.90
15257;DHT22;7731;50.720;6.912;2024-01-06T16:46:11;4.20;99.90